Time;durP1;ratioP1;P1;durP2;ratioP2;P2;SDS_P1;SDS_P2;PMS_P1;PMS_P2;Temp;Humidity;BMP_temperature;BMP_pressure;BME280_temperature;BME280_humidity;BME280_pressure;Samples;Min_cycle;Max_cycle;Signal;HPM_P1;HPM_P2
2021/12/11 00:00:29;;;;;;;124.72;112.25;;;2.40;92.10;;;;;;5051431;28;20049;-74
2021/12/11 00:03:00;;;;;;;122.38;110.20;;;2.40;92.10;;;;;;5052088;28;20048;-74
2021/12/11 00:05:28;;;;;;;125.22;112.63;;;2.40;92.10;;;;;;5070704;28;20122;-74
2021/12/11 00:07:55;;;;;;;125.65;112.82;;;2.40;92.00;;;;;;5052517;28;20045;-74
2021/12/11 00:10:28;;;;;;;123.85;111.28;;;2.30;91.90;;;;;;5052495;28;20048;-74
2021/12/11 00:13:01;;;;;;;127.00;113.90;;;2.30;91.90;;;;;;5052364;28;20554;-74
2021/12/11 00:15:33;;;;;;;127.10;113.80;;;2.20;92.00;;;;;;5036116;28;20140;-74
2021/12/11 00:18:02;;;;;;;127.28;114.15;;;2.30;92.10;;;;;;5052198;28;20131;-74
2021/12/11 00:20:32;;;;;;;127.38;113.95;;;2.20;92.10;;;;;;5052602;28;20077;-74
2021/12/11 00:22:59;;;;;;;127.88;114.70;;;2.20;92.20;;;;;;5035722;28;20563;-74
2021/12/11 00:25:29;;;;;;;127.78;114.65;;;2.20;92.30;;;;;;5051938;28;20136;-74
2021/12/11 00:28:03;;;;;;;129.05;115.65;;;2.20;92.40;;;;;;5052680;28;20654;-74
2021/12/11 00:30:35;;;;;;;128.50;115.25;;;2.30;92.70;;;;;;5069263;28;20243;-74
2021/12/11 00:33:07;;;;;;;126.05;113.15;;;2.30;92.60;;;;;;5052266;28;20049;-74
2021/12/11 00:35:34;;;;;;;125.53;112.40;;;2.30;92.50;;;;;;5051791;28;20693;-74
2021/12/11 00:38:05;;;;;;;125.40;112.32;;;2.20;92.40;;;;;;5070490;28;20057;-74
2021/12/11 00:40:35;;;;;;;127.22;113.97;;;2.20;92.50;;;;;;5051953;28;20099;-74
2021/12/11 00:43:05;;;;;;;125.38;112.43;;;2.20;92.60;;;;;;5070648;28;20543;-74
2021/12/11 00:45:36;;;;;;;125.72;112.82;;;2.20;92.60;;;;;;5052214;28;20199;-74
2021/12/11 00:48:06;;;;;;;124.22;111.20;;;2.20;92.70;;;;;;5051917;28;20049;-73
2021/12/11 00:50:36;;;;;;;122.40;109.93;;;2.20;92.80;;;;;;5090364;28;20064;-73
2021/12/11 00:53:10;;;;;;;123.40;110.85;;;2.20;92.70;;;;;;5090697;28;20102;-73
2021/12/11 00:55:40;;;;;;;124.40;111.68;;;2.20;92.60;;;;;;5090689;28;20059;-73
2021/12/11 00:58:11;;;;;;;126.05;113.00;;;2.20;92.60;;;;;;5071896;28;20130;-73
2021/12/11 01:00:45;;;;;;;126.65;113.32;;;2.20;92.70;;;;;;5071622;28;20048;-73
2021/12/11 01:03:17;;;;;;;126.47;113.18;;;2.20;92.70;;;;;;5072022;28;20045;-73
2021/12/11 01:05:49;;;;;;;124.05;111.22;;;2.20;92.70;;;;;;5072276;28;20151;-73
2021/12/11 01:08:22;;;;;;;124.28;111.47;;;2.20;92.60;;;;;;5071596;28;21084;-73
2021/12/11 01:10:54;;;;;;;123.70;110.68;;;2.20;92.60;;;;;;5072022;28;20060;-73
2021/12/11 01:13:25;;;;;;;127.07;113.78;;;2.20;92.70;;;;;;5090338;28;20057;-73
2021/12/11 01:16:05;;;;;;;125.68;112.68;;;2.20;92.70;;;;;;5090337;28;20504;-73
2021/12/11 01:18:39;;;;;;;124.97;112.07;;;2.20;92.70;;;;;;5071456;28;20530;-73
2021/12/11 01:21:27;;;;;;;125.53;112.45;;;2.20;92.60;;;;;;5089966;28;20113;-73
2021/12/11 01:24:10;;;;;;;126.85;113.55;;;2.20;92.60;;;;;;5071531;28;20052;-73
2021/12/11 01:26:43;;;;;;;124.45;111.65;;;2.20;92.60;;;;;;5070964;28;20057;-73
2021/12/11 01:29:11;;;;;;;124.55;111.55;;;2.20;92.60;;;;;;5054230;28;20076;-73
2021/12/11 01:31:38;;;;;;;124.97;112.13;;;2.20;92.60;;;;;;5089604;28;20044;-73
2021/12/11 01:34:10;;;;;;;124.55;111.75;;;2.20;92.50;;;;;;5071465;28;20657;-73
2021/12/11 01:36:38;;;;;;;123.35;110.75;;;2.20;92.40;;;;;;5071818;28;20122;-73
2021/12/11 01:39:10;;;;;;;124.47;111.68;;;2.10;92.60;;;;;;5089575;28;20062;-73
2021/12/11 01:41:39;;;;;;;125.28;112.40;;;2.10;92.40;;;;;;5089262;28;20124;-73
2021/12/11 01:44:11;;;;;;;123.45;110.85;;;2.00;92.40;;;;;;5070690;28;20118;-73
2021/12/11 01:46:39;;;;;;;123.53;110.60;;;1.90;92.40;;;;;;5089556;28;20576;-73
2021/12/11 01:49:14;;;;;;;126.75;113.88;;;1.90;92.40;;;;;;5089420;28;20048;-73
2021/12/11 01:51:47;;;;;;;125.82;112.88;;;1.80;92.40;;;;;;5071628;28;20045;-73
2021/12/11 01:54:19;;;;;;;125.00;111.88;;;1.80;92.50;;;;;;5071426;28;20374;-73
2021/12/11 01:56:52;;;;;;;124.38;111.53;;;1.80;92.70;;;;;;5089534;28;20605;-73
2021/12/11 01:59:22;;;;;;;123.78;111.07;;;1.90;92.70;;;;;;5054167;28;20059;-73
2021/12/11 02:01:54;;;;;;;126.57;113.47;;;1.90;92.70;;;;;;5070749;28;20098;-73
2021/12/11 02:04:24;;;;;;;125.18;112.28;;;1.90;92.70;;;;;;5054044;28;20138;-73
2021/12/11 02:06:53;;;;;;;124.18;111.40;;;1.90;92.70;;;;;;5070904;28;20084;-73
2021/12/11 02:09:23;;;;;;;125.38;112.30;;;1.90;92.70;;;;;;5070285;28;20055;-73
2021/12/11 02:12:00;;;;;;;124.43;111.63;;;2.00;92.60;;;;;;5089482;28;20059;-73
2021/12/11 02:14:34;;;;;;;123.85;110.95;;;1.90;92.40;;;;;;5071166;28;20146;-73
2021/12/11 02:17:02;;;;;;;125.72;112.78;;;1.90;92.40;;;;;;5088762;28;20052;-73
2021/12/11 02:19:33;;;;;;;122.38;109.63;;;1.80;92.30;;;;;;5071129;28;20052;-73
2021/12/11 02:22:10;;;;;;;121.07;108.72;;;1.80;92.30;;;;;;5070551;28;20052;-73
2021/12/11 02:24:38;;;;;;;;;;;1.70;92.30;;;;;;5070833;28;20560;-73
2021/12/11 02:27:09;;;;;;;125.82;112.70;;;1.70;92.50;;;;;;5070533;28;19924;-73
2021/12/11 02:29:39;;;;;;;120.97;108.53;;;1.70;92.60;;;;;;5070785;28;20131;-73
2021/12/11 02:32:12;;;;;;;120.32;107.93;;;1.60;92.60;;;;;;5053757;28;20047;-73
2021/12/11 02:34:42;;;;;;;122.78;110.18;;;1.60;92.60;;;;;;5088760;28;20053;-73
2021/12/11 02:37:16;;;;;;;122.22;109.63;;;1.60;92.70;;;;;;5089212;28;20045;-73
2021/12/11 02:39:48;;;;;;;122.45;109.80;;;1.70;92.70;;;;;;5070807;28;20048;-73
2021/12/11 02:42:22;;;;;;;120.80;108.40;;;1.70;92.70;;;;;;5088947;28;20051;-73
2021/12/11 02:44:53;;;;;;;119.97;107.63;;;1.70;92.60;;;;;;5070141;28;20106;-73
2021/12/11 02:47:24;;;;;;;118.70;106.57;;;1.70;92.60;;;;;;5088604;28;20049;-73
2021/12/11 02:49:55;;;;;;;119.25;107.10;;;1.70;92.70;;;;;;5088507;28;20078;-73
2021/12/11 02:52:27;;;;;;;117.53;105.72;;;1.70;92.50;;;;;;5088809;28;20048;-73
2021/12/11 02:55:00;;;;;;;117.00;105.03;;;1.70;92.40;;;;;;5088263;28;20479;-73
2021/12/11 02:57:31;;;;;;;115.78;103.90;;;1.70;92.40;;;;;;5088681;28;20063;-73
2021/12/11 03:00:12;;;;;;;116.78;104.97;;;1.60;92.30;;;;;;5088973;28;20132;-73
2021/12/11 03:02:44;;;;;;;118.05;106.05;;;1.60;92.40;;;;;;5070541;28;20609;-73
2021/12/11 03:05:14;;;;;;;116.63;104.38;;;1.60;92.30;;;;;;5053904;28;20060;-73
2021/12/11 03:07:50;;;;;;;118.05;106.07;;;1.60;92.30;;;;;;5088081;28;20048;-73
2021/12/11 03:10:19;;;;;;;116.03;104.13;;;1.50;92.30;;;;;;5053183;28;20082;-73
2021/12/11 03:12:46;;;;;;;118.47;106.50;;;1.50;92.30;;;;;;5088588;28;20052;-73
2021/12/11 03:15:16;;;;;;;117.05;105.15;;;1.40;92.30;;;;;;5070056;28;20053;-73
2021/12/11 03:17:43;;;;;;;116.97;105.15;;;1.40;92.30;;;;;;5088170;28;20063;-73
2021/12/11 03:20:12;;;;;;;;;;;1.30;92.40;;;;;;5070772;28;20144;-73
2021/12/11 03:22:41;;;;;;;117.32;105.22;;;1.30;92.40;;;;;;5070538;28;20386;-73
2021/12/11 03:25:12;;;;;;;117.13;105.15;;;1.20;92.40;;;;;;5070090;28;20048;-73
2021/12/11 03:27:40;;;;;;;119.05;106.78;;;1.20;92.50;;;;;;5069415;28;20055;-73
2021/12/11 03:30:11;;;;;;;120.13;107.82;;;1.10;92.50;;;;;;5069958;28;20119;-73
2021/12/11 03:32:39;;;;;;;118.00;105.88;;;1.10;92.50;;;;;;5052889;28;20048;-73
2021/12/11 03:35:09;;;;;;;116.22;104.13;;;1.10;92.70;;;;;;5069998;28;20060;-73
2021/12/11 03:37:36;;;;;;;116.20;104.30;;;1.00;92.70;;;;;;5087741;28;20097;-73
2021/12/11 03:40:04;;;;;;;;;;;1.00;92.70;;;;;;5070382;28;20127;-73
2021/12/11 03:42:37;;;;;;;115.45;103.38;;;1.00;93.00;;;;;;5088786;28;19954;-73
2021/12/11 03:45:09;;;;;;;117.00;105.05;;;1.00;92.90;;;;;;5069824;28;20493;-73
2021/12/11 03:47:41;;;;;;;118.18;105.95;;;1.00;93.00;;;;;;5053160;28;20584;-73
2021/12/11 03:50:12;;;;;;;116.18;104.10;;;1.00;93.00;;;;;;5069551;28;20128;-73
2021/12/11 03:52:40;;;;;;;116.20;104.38;;;1.10;93.00;;;;;;5069415;28;20460;-73
2021/12/11 03:55:09;;;;;;;116.97;104.82;;;1.20;93.10;;;;;;5087233;28;20056;-73
2021/12/11 03:57:38;;;;;;;117.97;105.82;;;1.20;93.00;;;;;;5069504;28;20048;-73
2021/12/11 04:00:09;;;;;;;116.30;104.47;;;1.20;93.00;;;;;;5087815;28;20055;-73
2021/12/11 04:02:44;;;;;;;117.93;105.85;;;1.20;92.90;;;;;;5069230;28;20136;-73
2021/12/11 04:05:11;;;;;;;117.45;105.32;;;1.20;92.70;;;;;;5069785;28;20075;-73
2021/12/11 04:07:42;;;;;;;118.07;105.93;;;1.10;92.70;;;;;;5072413;28;20060;-73
2021/12/11 04:10:12;;;;;;;117.30;105.38;;;1.10;92.70;;;;;;5091587;28;20084;-73
2021/12/11 04:12:41;;;;;;;119.22;107.15;;;1.10;92.80;;;;;;5072832;28;20522;-73
2021/12/11 04:15:10;;;;;;;119.78;107.57;;;1.10;92.90;;;;;;5072970;28;20052;-73
2021/12/11 04:17:38;;;;;;;118.95;106.68;;;1.20;93.00;;;;;;5090602;28;20098;-73
2021/12/11 04:20:09;;;;;;;119.32;106.95;;;1.10;93.00;;;;;;5072592;28;20052;-73
2021/12/11 04:22:37;;;;;;;119.13;106.93;;;1.20;93.10;;;;;;5055554;28;20052;-73
2021/12/11 04:25:05;;;;;;;120.80;108.40;;;1.20;93.00;;;;;;5090763;28;20055;-73
2021/12/11 04:27:32;;;;;;;122.18;109.63;;;1.20;93.10;;;;;;5090592;28;20080;-73
2021/12/11 04:30:03;;;;;;;120.38;107.75;;;1.20;93.10;;;;;;5090835;28;20088;-73
2021/12/11 04:32:33;;;;;;;117.53;105.50;;;1.20;93.00;;;;;;5072225;28;20060;-73
2021/12/11 04:35:00;;;;;;;118.50;106.60;;;1.20;92.70;;;;;;5090494;28;20061;-73
2021/12/11 04:37:30;;;;;;;118.38;105.85;;;1.00;92.50;;;;;;5071591;28;20049;-73
2021/12/11 04:40:02;;;;;;;120.82;108.13;;;0.90;92.50;;;;;;5072278;28;20490;-73
2021/12/11 04:42:42;;;;;;;120.28;107.78;;;0.70;92.60;;;;;;5072056;28;20049;-73
2021/12/11 04:45:14;;;;;;;122.65;109.65;;;0.70;92.70;;;;;;5090722;28;20063;-73
2021/12/11 04:47:46;;;;;;;121.18;108.32;;;0.60;92.80;;;;;;5071805;28;20053;-73
2021/12/11 04:50:22;;;;;;;121.03;108.30;;;0.60;92.90;;;;;;5072362;28;20102;-73
2021/12/11 04:52:54;;;;;;;122.63;109.82;;;0.60;93.00;;;;;;5090601;28;20377;-73
2021/12/11 04:55:36;;;;;;;120.53;107.93;;;0.60;93.10;;;;;;5090839;28;20064;-73
2021/12/11 05:00:59;;;;;;;126.05;112.78;;;0.50;93.10;;;;;;5071054;28;20052;-73
2021/12/11 05:04:00;;;;;;;126.68;112.90;;;0.50;93.30;;;;;;5072154;28;20053;-73
2021/12/11 05:06:39;;;;;;;126.85;113.50;;;0.50;93.60;;;;;;5054845;28;20565;-73
2021/12/11 05:09:22;;;;;;;126.63;113.18;;;0.50;93.80;;;;;;5089863;28;20897;-73
2021/12/11 05:11:55;;;;;;;126.30;113.10;;;0.50;94.00;;;;;;5090028;28;20111;-73
2021/12/11 05:14:25;;;;;;;127.20;113.55;;;0.50;94.10;;;;;;5071569;28;20508;-73
2021/12/11 05:16:54;;;;;;;125.70;112.47;;;0.50;94.20;;;;;;5070933;28;20534;-73
2021/12/11 05:19:22;;;;;;;126.53;113.03;;;0.50;94.30;;;;;;5071460;28;20517;-73
2021/12/11 05:21:48;;;;;;;127.75;113.97;;;0.50;94.20;;;;;;5071634;28;20127;-73
2021/12/11 05:24:17;;;;;;;125.05;111.75;;;0.50;94.30;;;;;;5071690;28;20069;-72
2021/12/11 05:26:45;;;;;;;126.47;113.03;;;0.50;94.30;;;;;;5071511;28;20569;-73
2021/12/11 05:29:12;;;;;;;126.18;112.60;;;0.50;94.50;;;;;;5089933;28;20079;-73
2021/12/11 05:31:39;;;;;;;128.20;114.45;;;0.50;94.50;;;;;;5089570;28;20578;-73
2021/12/11 05:34:08;;;;;;;124.47;111.30;;;0.50;94.50;;;;;;5089738;28;20080;-73
2021/12/11 05:36:37;;;;;;;125.03;111.93;;;0.50;94.50;;;;;;5089260;28;20118;-73
2021/12/11 05:39:08;;;;;;;124.00;110.90;;;0.50;94.60;;;;;;5071286;28;20048;-73
2021/12/11 05:41:36;;;;;;;123.53;110.10;;;0.50;94.60;;;;;;5071662;28;20080;-73
2021/12/11 05:44:04;;;;;;;126.75;113.35;;;0.60;94.60;;;;;;5089293;28;20504;-73
2021/12/11 05:46:32;;;;;;;123.15;109.95;;;0.60;94.60;;;;;;5071406;28;20581;-73
2021/12/11 05:48:59;;;;;;;123.40;110.30;;;0.60;94.50;;;;;;5070827;28;20376;-73
2021/12/11 05:51:27;;;;;;;121.95;109.05;;;0.70;94.60;;;;;;5071114;28;20127;-73
2021/12/11 05:54:00;;;;;;;122.95;110.05;;;0.70;94.50;;;;;;5071437;28;20050;-73
2021/12/11 05:56:33;;;;;;;121.78;108.80;;;0.70;94.30;;;;;;5089557;28;20052;-73
2021/12/11 05:59:00;;;;;;;122.05;109.15;;;0.70;94.10;;;;;;5070592;28;20098;-73
2021/12/11 06:01:34;;;;;;;122.68;109.63;;;0.60;93.80;;;;;;5070975;28;20059;-73
2021/12/11 06:04:05;;;;;;;122.40;109.80;;;0.50;93.70;;;;;;5089483;28;20123;-73
2021/12/11 06:06:33;;;;;;;122.47;109.68;;;0.40;93.80;;;;;;5071331;28;20155;-73
2021/12/11 06:09:00;;;;;;;123.38;110.38;;;0.30;93.80;;;;;;5070678;28;20053;-73
2021/12/11 06:11:27;;;;;;;121.30;108.65;;;0.30;93.80;;;;;;5071346;28;20055;-73
2021/12/11 06:13:54;;;;;;;121.53;108.85;;;0.20;93.90;;;;;;5089706;28;20134;-73
2021/12/11 06:16:21;;;;;;;122.72;109.80;;;0.20;93.90;;;;;;5089915;28;20071;-73
2021/12/11 06:18:48;;;;;;;123.93;110.82;;;0.30;94.00;;;;;;5089370;28;20060;-73
2021/12/11 06:21:16;;;;;;;123.05;109.95;;;0.30;94.00;;;;;;5088743;28;20947;-73
2021/12/11 06:23:44;;;;;;;;;;;0.30;94.00;;;;;;5089513;28;20879;-73
2021/12/11 06:26:12;;;;;;;122.97;109.78;;;0.30;94.10;;;;;;5069864;28;20509;-73
2021/12/11 06:28:39;;;;;;;123.38;110.20;;;0.30;94.10;;;;;;5068937;28;20433;-73
2021/12/11 06:31:07;;;;;;;122.63;109.93;;;0.40;94.10;;;;;;5062593;28;20597;-73
2021/12/11 06:33:34;;;;;;;;;;;0.40;94.10;;;;;;5050189;28;20064;-73
2021/12/11 06:36:05;;;;;;;122.03;108.55;;;0.40;94.10;;;;;;5050752;28;20065;-73
2021/12/11 06:38:35;;;;;;;122.63;109.55;;;0.40;94.10;;;;;;5050050;28;20077;-73
2021/12/11 06:41:07;;;;;;;122.03;109.03;;;0.50;94.20;;;;;;5068394;28;20053;-73
2021/12/11 06:43:35;;;;;;;123.63;110.78;;;0.50;94.20;;;;;;5050071;28;20053;-73
2021/12/11 06:46:02;;;;;;;125.05;111.72;;;0.50;94.10;;;;;;5033673;28;20045;-73
2021/12/11 06:48:29;;;;;;;125.72;112.18;;;0.50;94.10;;;;;;5033422;28;20515;-73
2021/12/11 06:50:58;;;;;;;124.68;111.03;;;0.60;94.10;;;;;;5068243;28;20057;-73
2021/12/11 06:53:31;;;;;;;125.18;112.03;;;0.60;94.00;;;;;;5050447;28;20045;-73
2021/12/11 06:55:58;;;;;;;125.35;112.13;;;0.60;94.00;;;;;;5068256;28;20459;-73
2021/12/11 06:58:27;;;;;;;123.63;110.75;;;0.60;94.00;;;;;;5067966;28;20056;-73
2021/12/11 07:00:54;;;;;;;123.47;110.38;;;0.50;93.90;;;;;;5068209;28;20158;-73
2021/12/11 07:03:22;;;;;;;124.28;111.18;;;0.50;93.90;;;;;;5068007;28;20135;-73
2021/12/11 07:05:49;;;;;;;125.90;112.70;;;0.50;93.90;;;;;;5049846;28;20045;-73
2021/12/11 07:08:17;;;;;;;127.55;114.13;;;0.50;93.90;;;;;;5067936;28;20514;-73
2021/12/11 07:10:46;;;;;;;126.63;113.30;;;0.50;93.80;;;;;;5068102;28;20049;-73
2021/12/11 07:13:14;;;;;;;125.07;111.97;;;0.50;93.80;;;;;;5049594;28;20322;-72
2021/12/11 07:15:43;;;;;;;126.45;112.85;;;0.50;93.90;;;;;;5049581;28;20238;-73
2021/12/11 07:18:10;;;;;;;125.05;111.78;;;0.50;93.90;;;;;;5067922;28;20053;-73
2021/12/11 07:20:37;;;;;;;;;;;0.50;94.00;;;;;;5032875;28;20059;-72
2021/12/11 07:23:04;;;;;;;;;;;0.50;93.90;;;;;;5049642;28;20015;-73
2021/12/11 07:25:37;;;;;;;123.05;109.60;;;0.60;93.80;;;;;;5072161;28;20554;-73
2021/12/11 07:28:05;;;;;;;124.07;110.70;;;0.60;93.90;;;;;;5070575;28;20064;-74
2021/12/11 07:30:34;;;;;;;124.53;111.25;;;0.60;93.90;;;;;;5049625;28;20578;-73
2021/12/11 07:33:05;;;;;;;124.60;111.32;;;0.60;93.90;;;;;;5065898;28;20048;-73
2021/12/11 07:35:33;;;;;;;122.28;109.50;;;0.60;94.00;;;;;;5055165;28;20139;-72
2021/12/11 07:38:01;;;;;;;126.15;113.05;;;0.60;94.00;;;;;;5074545;28;20132;-74
2021/12/11 07:40:32;;;;;;;128.05;114.65;;;0.60;94.00;;;;;;5038978;28;20510;-74
2021/12/11 07:42:59;;;;;;;126.57;113.07;;;0.60;93.90;;;;;;5062499;28;20060;-74
2021/12/11 07:45:28;;;;;;;126.63;113.13;;;0.50;93.90;;;;;;5042340;28;20487;-74
2021/12/11 07:47:55;;;;;;;126.45;113.03;;;0.60;94.00;;;;;;5067033;28;20517;-74
2021/12/11 07:50:24;;;;;;;124.55;111.53;;;0.60;94.00;;;;;;5052269;28;20076;-74
2021/12/11 07:52:51;;;;;;;125.05;111.95;;;0.60;94.10;;;;;;5034682;28;20124;-74
2021/12/11 07:55:18;;;;;;;126.32;113.00;;;0.60;94.00;;;;;;5051290;28;20124;-74
2021/12/11 07:57:45;;;;;;;126.28;112.78;;;0.60;93.90;;;;;;5050024;28;20104;-74
2021/12/11 08:00:14;;;;;;;;;;;0.60;93.90;;;;;;5069209;28;21637;-74
2021/12/11 08:02:41;;;;;;;124.57;111.32;;;0.70;94.00;;;;;;5051187;28;19929;-73
2021/12/11 08:05:09;;;;;;;127.88;114.47;;;0.70;94.00;;;;;;5069115;28;20503;-74
2021/12/11 08:07:38;;;;;;;124.40;111.20;;;0.70;94.00;;;;;;5071271;28;20056;-73
2021/12/11 08:10:08;;;;;;;125.25;112.05;;;0.70;94.00;;;;;;5071946;28;20079;-73
2021/12/11 08:12:36;;;;;;;130.30;116.35;;;0.70;94.00;;;;;;5051276;28;20577;-73
2021/12/11 08:15:04;;;;;;;;;;;0.70;93.90;;;;;;5068628;28;20136;-74
2021/12/11 08:17:31;;;;;;;125.28;111.90;;;0.70;93.70;;;;;;5072027;28;20034;-74
2021/12/11 08:19:59;;;;;;;126.13;112.80;;;0.70;93.70;;;;;;5049696;28;20128;-74
2021/12/11 08:22:26;;;;;;;124.43;111.28;;;0.60;93.70;;;;;;5034663;28;20124;-74
2021/12/11 08:24:54;;;;;;;126.20;112.85;;;0.60;93.80;;;;;;5051417;28;20053;-74
2021/12/11 08:27:22;;;;;;;126.78;113.50;;;0.60;93.80;;;;;;5051285;28;20570;-74
2021/12/11 08:29:52;;;;;;;124.65;111.68;;;0.60;93.90;;;;;;5051633;28;20152;-73
2021/12/11 08:32:21;;;;;;;127.50;114.18;;;0.60;93.90;;;;;;5069892;28;20135;-74
2021/12/11 08:34:48;;;;;;;129.63;116.03;;;0.60;94.00;;;;;;5069325;28;20053;-73
2021/12/11 08:37:18;;;;;;;128.98;115.50;;;0.70;93.90;;;;;;5034761;28;20041;-74
2021/12/11 08:39:46;;;;;;;129.73;115.75;;;0.70;93.90;;;;;;5051458;28;20060;-74
2021/12/11 08:42:18;;;;;;;128.50;114.78;;;0.70;93.90;;;;;;5051333;28;20084;-74
2021/12/11 08:44:51;;;;;;;128.63;114.82;;;0.70;93.90;;;;;;5052615;28;20151;-74
2021/12/11 08:47:21;;;;;;;126.43;113.03;;;0.60;93.90;;;;;;5071589;28;20483;-74
2021/12/11 08:49:50;;;;;;;129.05;115.40;;;0.60;93.90;;;;;;5072747;28;20048;-73
2021/12/11 08:52:21;;;;;;;128.80;114.70;;;0.60;94.00;;;;;;5052581;28;20121;-73
2021/12/11 08:54:48;;;;;;;128.00;114.20;;;0.60;94.00;;;;;;5069641;28;20057;-73
2021/12/11 08:57:21;;;;;;;127.97;114.40;;;0.60;94.10;;;;;;5052244;28;20483;-73
2021/12/11 08:59:53;;;;;;;132.93;118.55;;;0.60;94.10;;;;;;5050264;28;20095;-73
2021/12/11 09:02:24;;;;;;;136.32;121.32;;;0.60;94.20;;;;;;5048183;28;20073;-73
2021/12/11 09:04:58;;;;;;;132.23;117.85;;;0.60;94.30;;;;;;5069005;28;20087;-73
2021/12/11 09:07:29;;;;;;;136.75;120.78;;;0.60;94.40;;;;;;5049526;28;20103;-73
2021/12/11 09:09:59;;;;;;;138.77;122.57;;;0.60;94.50;;;;;;5052224;28;20211;-73
2021/12/11 09:12:32;;;;;;;139.75;124.45;;;0.60;94.50;;;;;;5053112;28;20089;-73
2021/12/11 09:15:05;;;;;;;135.07;120.20;;;0.60;94.60;;;;;;5041589;28;20597;-74
2021/12/11 09:17:35;;;;;;;134.07;119.63;;;0.60;94.70;;;;;;5069274;28;20204;-73
2021/12/11 09:20:10;;;;;;;132.13;116.75;;;0.60;94.80;;;;;;5053331;28;20049;-73
2021/12/11 09:22:41;;;;;;;134.82;119.10;;;0.60;94.90;;;;;;4969585;28;20084;-73
2021/12/11 09:25:12;;;;;;;133.23;118.57;;;0.70;95.00;;;;;;5066303;28;20095;-73
2021/12/11 09:27:46;;;;;;;133.40;118.88;;;0.60;95.10;;;;;;5055849;28;20057;-73
2021/12/11 09:30:19;;;;;;;134.13;118.30;;;0.70;95.10;;;;;;5072915;28;20144;-73
2021/12/11 09:32:49;;;;;;;133.15;118.65;;;0.70;95.20;;;;;;5050396;28;20720;-73
2021/12/11 09:35:22;;;;;;;138.07;122.22;;;0.70;95.30;;;;;;5057055;28;20499;-73
2021/12/11 09:37:51;;;;;;;134.68;119.97;;;0.80;95.50;;;;;;5056390;28;20057;-73
2021/12/11 09:40:31;;;;;;;132.40;117.43;;;0.90;95.80;;;;;;5081906;28;20048;-74
2021/12/11 09:42:57;;;;;;;135.30;120.70;;;0.90;95.80;;;;;;5067678;28;20072;-74
2021/12/11 09:45:28;;;;;;;133.50;118.93;;;0.90;95.90;;;;;;5072042;28;20059;-73
2021/12/11 09:47:59;;;;;;;136.68;121.88;;;1.00;95.90;;;;;;5053885;28;20268;-74
2021/12/11 09:50:31;;;;;;;136.98;121.93;;;1.00;96.10;;;;;;5071402;28;20511;-74
2021/12/11 09:52:58;;;;;;;135.13;120.35;;;1.10;96.10;;;;;;5049832;28;20049;-74
2021/12/11 09:55:27;;;;;;;;;;;1.10;96.30;;;;;;5068724;28;20072;-74
2021/12/11 09:57:57;;;;;;;135.85;120.88;;;1.20;96.30;;;;;;5072269;28;20018;-74
2021/12/11 10:00:34;;;;;;;136.77;121.80;;;1.20;96.30;;;;;;5059793;28;20048;-74
2021/12/11 10:03:04;;;;;;;134.27;119.60;;;1.30;96.50;;;;;;5057718;28;20337;-74
2021/12/11 10:05:37;;;;;;;139.43;123.75;;;1.30;96.70;;;;;;5048388;28;20137;-74
2021/12/11 10:08:26;;;;;;;134.15;119.60;;;1.40;96.60;;;;;;5061871;28;20044;-74
2021/12/11 10:11:03;;;;;;;138.27;123.28;;;1.40;96.70;;;;;;5061237;28;20055;-73
2021/12/11 10:13:30;;;;;;;137.65;122.60;;;1.40;96.70;;;;;;5065656;28;20048;-73
2021/12/11 10:15:59;;;;;;;135.90;121.25;;;1.50;96.70;;;;;;5049994;28;20052;-73
2021/12/11 10:18:29;;;;;;;136.02;121.20;;;1.50;96.70;;;;;;5049858;28;20988;-73
2021/12/11 10:21:00;;;;;;;134.48;120.07;;;1.50;96.70;;;;;;5050103;28;20076;-73
2021/12/11 10:23:30;;;;;;;137.63;122.75;;;1.60;96.70;;;;;;5050475;28;20104;-73
2021/12/11 10:26:01;;;;;;;138.15;123.22;;;1.70;96.80;;;;;;5067965;28;20057;-72
2021/12/11 10:28:30;;;;;;;136.32;121.45;;;1.70;96.90;;;;;;5049565;28;20496;-73
2021/12/11 10:31:01;;;;;;;139.30;124.13;;;1.80;96.90;;;;;;5062633;28;20061;-74
2021/12/11 10:33:31;;;;;;;136.02;121.32;;;1.80;97.00;;;;;;5047554;28;20085;-73
2021/12/11 10:36:02;;;;;;;138.60;123.30;;;1.90;97.00;;;;;;5067612;28;20056;-73
2021/12/11 10:38:30;;;;;;;140.52;125.15;;;1.90;97.00;;;;;;5050731;28;20180;-73
2021/12/11 10:41:00;;;;;;;139.45;124.10;;;2.00;97.20;;;;;;5060519;28;20551;-73
2021/12/11 10:43:32;;;;;;;136.35;121.57;;;2.10;97.20;;;;;;5061360;28;20466;-73
2021/12/11 10:46:03;;;;;;;136.35;121.53;;;2.20;97.20;;;;;;5078711;28;20167;-73
2021/12/11 10:48:33;;;;;;;138.57;123.78;;;2.20;97.20;;;;;;5078503;28;20056;-74
2021/12/11 10:51:05;;;;;;;137.40;122.28;;;2.30;97.30;;;;;;5057023;28;20115;-80
2021/12/11 10:53:34;;;;;;;136.73;122.15;;;2.40;97.30;;;;;;5065715;28;20466;-73
2021/12/11 10:56:04;;;;;;;137.23;122.47;;;2.40;97.30;;;;;;5049510;28;20442;-74
2021/12/11 10:58:36;;;;;;;137.32;122.43;;;2.50;97.40;;;;;;5049247;28;20115;-73
2021/12/11 11:01:08;;;;;;;138.52;123.72;;;2.60;97.50;;;;;;5050342;28;20191;-73
2021/12/11 11:03:38;;;;;;;135.95;121.53;;;2.60;97.50;;;;;;5068580;28;20529;-74
2021/12/11 11:06:07;;;;;;;135.30;121.03;;;2.70;97.50;;;;;;5048757;28;20072;-74
2021/12/11 11:08:35;;;;;;;136.77;122.47;;;2.80;97.50;;;;;;5048682;28;20053;-73
2021/12/11 11:11:06;;;;;;;136.38;121.78;;;2.90;97.50;;;;;;5066539;28;20184;-73
2021/12/11 11:13:33;;;;;;;138.80;124.05;;;2.90;97.50;;;;;;5067653;28;20144;-73
2021/12/11 11:16:00;;;;;;;;;;;3.00;97.50;;;;;;5052573;28;20507;-74
2021/12/11 11:18:29;;;;;;;134.50;119.78;;;3.10;97.50;;;;;;5071339;28;20029;-73
2021/12/11 11:21:01;;;;;;;138.82;123.50;;;3.10;97.50;;;;;;5035912;28;20160;-72
2021/12/11 11:23:28;;;;;;;137.52;123.05;;;3.20;97.50;;;;;;5071691;28;20151;-74
2021/12/11 11:25:56;;;;;;;;;;;3.20;97.50;;;;;;5070399;28;20507;-73
2021/12/11 11:28:32;;;;;;;137.38;122.82;;;3.30;97.50;;;;;;5052437;28;19924;-73
2021/12/11 11:31:02;;;;;;;136.93;122.38;;;3.40;97.40;;;;;;5052015;28;20060;-74
2021/12/11 11:33:31;;;;;;;139.73;124.85;;;3.40;97.30;;;;;;5073188;28;20505;-74
2021/12/11 11:36:02;;;;;;;136.68;122.28;;;3.40;97.40;;;;;;5075146;28;20073;-77
2021/12/11 11:38:33;;;;;;;136.75;122.55;;;3.50;97.30;;;;;;5052231;28;20045;-74
2021/12/11 11:41:04;;;;;;;136.90;122.43;;;3.60;97.40;;;;;;5049444;28;20588;-74
2021/12/11 11:43:31;;;;;;;136.63;122.43;;;3.60;97.40;;;;;;5052147;28;20605;-74
2021/12/11 11:45:58;;;;;;;137.65;123.53;;;3.70;97.40;;;;;;5069937;28;20053;-74
2021/12/11 11:48:28;;;;;;;136.10;121.55;;;3.80;97.50;;;;;;5051213;28;20133;-74
2021/12/11 11:50:59;;;;;;;136.40;121.90;;;3.90;97.50;;;;;;5070403;28;20121;-74
2021/12/11 11:53:27;;;;;;;135.40;121.10;;;3.90;97.30;;;;;;5070892;28;20053;-73
2021/12/11 11:55:57;;;;;;;135.90;121.60;;;4.00;97.30;;;;;;5071207;28;20057;-73
2021/12/11 11:58:27;;;;;;;137.07;122.55;;;4.00;97.30;;;;;;5071356;28;20081;-73
2021/12/11 12:00:59;;;;;;;138.93;124.05;;;4.10;97.20;;;;;;5071143;28;20153;-73
2021/12/11 12:03:28;;;;;;;136.93;122.18;;;4.20;97.20;;;;;;5052949;28;20131;-73
2021/12/11 12:06:01;;;;;;;139.85;125.18;;;4.20;97.20;;;;;;5063631;28;20518;-73
2021/12/11 12:08:29;;;;;;;139.15;124.57;;;4.20;97.20;;;;;;5085655;28;20049;-73
2021/12/11 12:10:58;;;;;;;139.57;124.68;;;4.30;97.20;;;;;;5050443;28;20049;-73
2021/12/11 12:13:28;;;;;;;147.73;132.10;;;4.40;97.30;;;;;;5070132;28;20132;-72
2021/12/11 12:15:58;;;;;;;150.95;135.00;;;4.40;97.20;;;;;;5070322;28;20053;-72
2021/12/11 12:18:27;;;;;;;147.23;132.10;;;4.50;97.20;;;;;;5059976;28;20055;-73
2021/12/11 12:20:56;;;;;;;143.90;129.20;;;4.50;97.10;;;;;;5078909;28;20496;-73
2021/12/11 12:23:25;;;;;;;139.50;124.70;;;4.60;97.10;;;;;;5080739;28;20156;-74
2021/12/11 12:25:55;;;;;;;135.88;121.55;;;4.60;97.10;;;;;;5081955;28;20049;-73
2021/12/11 12:28:22;;;;;;;137.35;122.30;;;4.70;97.10;;;;;;5052872;28;20879;-73
2021/12/11 12:30:57;;;;;;;135.43;121.13;;;4.70;97.10;;;;;;5059818;28;20544;-74
2021/12/11 12:33:24;;;;;;;138.13;123.75;;;4.80;97.20;;;;;;5050454;28;20037;-73
2021/12/11 12:35:52;;;;;;;135.80;121.72;;;4.90;97.10;;;;;;5082384;28;20056;-73
2021/12/11 12:38:22;;;;;;;136.98;122.32;;;4.90;97.00;;;;;;5049786;28;20167;-73